< Cyclone 202123 2022 Season Cyclone 202207 >
Cyclone 202202 (Paddy)
General InformationDetailed Track InformationTrack Information on Google MapsList of All Images || ResourceGoogle EarthGE AnimationAtom FeedGeoJSON
Detalied Best Track Wind (Time Zone = UTC)
Year Month Day Hour Lat. Long. Wind (kt) Gust (kt) Direc. of Major Storm Axis Radius of Major Storm Axis (nm) Radius of Minor Storm Axis (nm) Direc. of Major Gale Axis Radius of Major Gale Axis (nm) Radius of Minor Gale Axis (nm) Image
2021 11 19 06 -9.9 103.5 20 45 symmetric - - symmetric - - Image
2021 11 19 12 -10.2 104.0 20 45 symmetric - - symmetric - - Image
2021 11 19 18 -10.3 104.3 20 45 symmetric - - symmetric - - Image
2021 11 20 00 -10.3 104.6 20 45 symmetric - - symmetric - - Image
2021 11 20 06 -10.3 105.1 20 45 symmetric - - symmetric - - Image
2021 11 20 12 -10.6 105.7 25 45 symmetric - - symmetric - - Image
2021 11 20 18 -11.1 105.9 25 45 symmetric - - symmetric - - Image
2021 11 21 00 -11.5 106.0 25 45 symmetric - - symmetric - - Image
2021 11 21 06 -11.6 106.4 25 45 symmetric - - symmetric - - Image
2021 11 21 12 -11.8 107.2 30 45 symmetric - - symmetric - - Image
2021 11 21 18 -12.4 107.6 30 45 symmetric - - symmetric - - Image
2021 11 22 00 -12.8 108.0 40 55 symmetric - - symmetric - - Image
2021 11 22 06 -13.2 108.0 40 55 symmetric - - symmetric - - Image
2021 11 22 12 -13.3 107.9 40 55 symmetric - - symmetric - - Image
2021 11 22 18 -13.4 107.7 40 55 symmetric - - symmetric - - Image
2021 11 23 00 -13.5 107.5 40 55 symmetric - - symmetric - - Image
2021 11 23 06 -13.7 107.2 40 55 symmetric - - symmetric - - Image
2021 11 23 12 -13.7 107.1 35 50 symmetric - - symmetric - - Image
2021 11 23 18 -13.8 106.9 35 50 symmetric - - symmetric - - Image
2021 11 24 00 -13.9 106.5 35 50 symmetric - - symmetric - - Image
2021 11 24 06 -14.1 105.9 30 45 symmetric - - symmetric - - Image
2021 11 24 12 -14.0 105.4 30 45 symmetric - - symmetric - - Image
2021 11 24 18 -14.1 104.9 30 45 symmetric - - symmetric - - Image
2021 11 25 00 -14.2 104.4 30 45 symmetric - - symmetric - - Image
2021 11 25 06 -14.3 103.7 25 45 symmetric - - symmetric - - Image
< Cyclone 202123 2022 Season Cyclone 202207 >

Help